createdAt,value
2019-05-01T00:00:31.567Z,100639.34
2019-05-01T00:01:48.030Z,100639.81
2019-05-01T00:03:02.888Z,100632.77
2019-05-01T00:04:13.064Z,100630.11
2019-05-01T00:05:19.199Z,100632.73
2019-05-01T00:06:28.244Z,100632.73
2019-05-01T00:07:34.343Z,100631.92
2019-05-01T00:08:38.883Z,100632.26
2019-05-01T00:09:43.682Z,100629.16
2019-05-01T00:10:48.221Z,100624.30
2019-05-01T00:11:52.692Z,100629.08
2019-05-01T00:12:58.858Z,100629.52
2019-05-01T00:14:03.326Z,100624.27
2019-05-01T00:15:08.154Z,100622.55
2019-05-01T00:16:12.837Z,100622.59
2019-05-01T00:17:18.084Z,100620.69
2019-05-01T00:18:22.838Z,100620.76
2019-05-01T00:19:27.322Z,100619.89
2019-05-01T00:20:31.814Z,100615.11
2019-05-01T00:21:36.287Z,100618.97
2019-05-01T00:22:41.114Z,100617.18
2019-05-01T00:23:45.650Z,100616.34
2019-05-01T00:24:50.314Z,100617.22
2019-05-01T00:25:55.851Z,100618.13
2019-05-01T00:27:00.323Z,100611.56
2019-05-01T00:28:05.136Z,100607.18
2019-05-01T00:29:09.679Z,100608.05
2019-05-01T00:30:28.811Z,100611.09
2019-05-01T00:31:22.750Z,100605.90
2019-05-01T00:32:27.287Z,100603.23
2019-05-01T00:33:32.725Z,100600.17
2019-05-01T00:34:37.199Z,100597.98
2019-05-01T00:35:41.691Z,100594.47
2019-05-01T00:36:46.228Z,100595.34
2019-05-01T00:37:51.878Z,100597.10
2019-05-01T00:38:56.344Z,100597.94
2019-05-01T00:40:01.136Z,100595.71
2019-05-01T00:41:06.323Z,100597.91
2019-05-01T00:42:11.143Z,100590.05
2019-05-01T00:43:15.918Z,100594.40
2019-05-01T00:44:20.401Z,100590.34
2019-05-01T00:45:25.406Z,100590.61
2019-05-01T00:46:29.929Z,100598.49
2019-05-01T00:47:34.364Z,100595.79
2019-05-01T00:48:38.909Z,100589.58
2019-05-01T00:49:43.388Z,100590.45
2019-05-01T00:50:48.571Z,100590.89
2019-05-01T00:51:53.041Z,100588.73
2019-05-01T00:52:57.507Z,100582.57
2019-05-01T00:54:02.316Z,100586.52
2019-05-01T00:55:25.266Z,100579.54
2019-05-01T00:56:40.162Z,100581.73
2019-05-01T00:57:49.259Z,100576.48
2019-05-01T00:59:13.610Z,100576.00
2019-05-01T01:00:29.042Z,100577.31
2019-05-01T01:01:44.047Z,100582.17
2019-05-01T01:02:48.996Z,100574.28
2019-05-01T01:03:53.457Z,100578.59
2019-05-01T01:04:57.927Z,100568.95
2019-05-01T01:06:03.526Z,100576.91
2019-05-01T01:07:08.268Z,100573.48
2019-05-01T01:08:12.749Z,100571.70
2019-05-01T01:09:17.982Z,100578.23
2019-05-01T01:10:22.484Z,100569.94
2019-05-01T01:11:26.993Z,100570.38
2019-05-01T01:12:31.609Z,100571.66
2019-05-01T01:13:36.084Z,100565.92
2019-05-01T01:14:40.559Z,100571.58
2019-05-01T01:15:45.368Z,100569.34
2019-05-01T01:16:50.183Z,100568.91
2019-05-01T01:17:54.979Z,100567.16
2019-05-01T01:18:59.453Z,100562.73
2019-05-01T01:20:04.464Z,100566.64
2019-05-01T01:21:09.096Z,100564.48
2019-05-01T01:22:13.560Z,100569.31
2019-05-01T01:23:18.965Z,100563.65
2019-05-01T01:24:23.675Z,100565.37
2019-05-01T01:25:28.142Z,100567.99
2019-05-01T01:26:32.949Z,100560.14
2019-05-01T01:27:38.176Z,100555.41
2019-05-01T01:28:42.997Z,100564.25
2019-05-01T01:29:48.611Z,100563.41
2019-05-01T01:30:56.566Z,100559.47
2019-05-01T01:31:59.342Z,100560.38
2019-05-01T01:33:04.090Z,100557.03
2019-05-01T01:34:08.936Z,100556.13
2019-05-01T01:35:13.774Z,100554.37
2019-05-01T01:36:18.264Z,100550.03
2019-05-01T01:37:22.732Z,100550.14
2019-05-01T01:38:27.212Z,100542.14
2019-05-01T01:39:32.016Z,100552.26
2019-05-01T01:40:36.856Z,100548.31
2019-05-01T01:41:44.102Z,100546.56
2019-05-01T01:42:50.474Z,100536.89
2019-05-01T01:43:56.923Z,100542.14
2019-05-01T01:45:09.564Z,100535.14
2019-05-01T01:46:24.791Z,100538.68
2019-05-01T01:47:29.453Z,100538.75
2019-05-01T01:48:33.961Z,100534.27
2019-05-01T01:49:38.602Z,100532.58
2019-05-01T01:50:45.871Z,100534.30
2019-05-01T01:51:51.210Z,100522.91
2019-05-01T01:52:55.761Z,100530.39
2019-05-01T01:54:00.774Z,100525.06
2019-05-01T01:55:06.286Z,100527.69
2019-05-01T01:56:10.895Z,100523.87
2019-05-01T01:57:15.826Z,100528.72
2019-05-01T01:58:21.701Z,100523.83
2019-05-01T01:59:27.005Z,100522.98
2019-05-01T02:00:34.268Z,100522.08
2019-05-01T02:01:43.257Z,100521.68
2019-05-01T02:02:49.431Z,100522.11
2019-05-01T02:04:04.088Z,100519.45
2019-05-01T02:05:13.200Z,100519.41
2019-05-01T02:06:17.807Z,100516.83
2019-05-01T02:07:22.989Z,100511.17
2019-05-01T02:08:27.812Z,100511.20
2019-05-01T02:09:32.299Z,100512.92
2019-05-01T02:10:43.056Z,100512.41
2019-05-01T02:11:45.523Z,100511.53
2019-05-01T02:12:50.414Z,100515.86
2019-05-01T02:13:56.497Z,100506.67
2019-05-01T02:15:00.965Z,100508.06
2019-05-01T02:16:05.507Z,100505.44
2019-05-01T02:17:10.469Z,100507.66
2019-05-01T02:18:14.933Z,100507.63
2019-05-01T02:19:20.469Z,100502.41
2019-05-01T02:20:25.329Z,100505.00
2019-05-01T02:21:29.803Z,100505.08
2019-05-01T02:22:34.357Z,100505.13
2019-05-01T02:23:38.982Z,100505.55
2019-05-01T02:24:43.789Z,100501.13
2019-05-01T02:25:48.260Z,100507.30
2019-05-01T02:26:54.858Z,100504.69
2019-05-01T02:28:17.641Z,100505.55
2019-05-01T02:29:27.443Z,100498.03
2019-05-01T02:30:32.057Z,100498.86
2019-05-01T02:31:38.909Z,100491.38
2019-05-01T02:32:46.101Z,100493.12
2019-05-01T02:33:53.110Z,100497.52
2019-05-01T02:35:00.481Z,100495.76
2019-05-01T02:36:06.189Z,100497.00
2019-05-01T02:37:13.322Z,100491.70
2019-05-01T02:38:18.265Z,100493.88
2019-05-01T02:39:23.639Z,100489.16
2019-05-01T02:40:51.917Z,100493.01
2019-05-01T02:41:59.490Z,100490.42
2019-05-01T02:43:04.933Z,100489.98
2019-05-01T02:44:12.522Z,100487.80
2019-05-01T02:45:17.928Z,100489.91
2019-05-01T02:46:25.197Z,100487.19
2019-05-01T02:47:32.723Z,100484.95
2019-05-01T02:48:40.413Z,100488.11
2019-05-01T02:49:53.529Z,100485.00
2019-05-01T02:51:01.384Z,100487.59
2019-05-01T02:52:08.332Z,100486.27
2019-05-01T02:53:12.959Z,100481.45
2019-05-01T02:54:20.772Z,100480.58
2019-05-01T02:55:36.670Z,100478.83
2019-05-01T02:56:44.215Z,100471.38
2019-05-01T02:57:49.354Z,100470.98
2019-05-01T02:58:56.867Z,100474.02
2019-05-01T03:00:01.688Z,100471.38
2019-05-01T03:01:06.216Z,100472.34
2019-05-01T03:02:11.284Z,100469.23
2019-05-01T03:03:17.332Z,100463.50
2019-05-01T03:04:22.344Z,100466.20
2019-05-01T03:05:26.869Z,100467.09
2019-05-01T03:06:32.395Z,100466.12
2019-05-01T03:07:40.810Z,100468.71
2019-05-01T03:08:45.685Z,100456.41
2019-05-01T03:09:50.893Z,100464.23
2019-05-01T03:10:55.356Z,100463.36
2019-05-01T03:12:00.679Z,100456.84
2019-05-01T03:13:05.830Z,100456.41
2019-05-01T03:14:13.377Z,100454.13
2019-05-01T03:15:20.119Z,100459.38
2019-05-01T03:16:26.233Z,100461.61
2019-05-01T03:17:49.085Z,100453.24
2019-05-01T03:18:55.581Z,100458.42
2019-05-01T03:20:02.230Z,100462.80
2019-05-01T03:21:08.493Z,100458.50
2019-05-01T03:22:14.673Z,100462.80
2019-05-01T03:23:21.257Z,100456.70
2019-05-01T03:24:27.915Z,100456.23
2019-05-01T03:25:32.741Z,100457.93
2019-05-01T03:26:38.681Z,100452.72
2019-05-01T03:27:44.204Z,100460.03
2019-05-01T03:28:49.367Z,100458.72
2019-05-01T03:29:53.884Z,100456.58
2019-05-01T03:30:58.626Z,100456.48
2019-05-01T03:32:16.860Z,100460.37
2019-05-01T03:33:09.291Z,100454.30
2019-05-01T03:34:14.216Z,100454.30
2019-05-01T03:35:18.936Z,100452.15
2019-05-01T03:36:23.959Z,100452.15
2019-05-01T03:37:29.068Z,100453.02
2019-05-01T03:38:34.615Z,100452.15
2019-05-01T03:39:39.717Z,100457.05
2019-05-01T03:40:44.259Z,100452.15
2019-05-01T03:41:49.438Z,100455.13
2019-05-01T03:42:53.978Z,100454.77
2019-05-01T03:43:59.395Z,100460.47
2019-05-01T03:45:05.505Z,100455.66
2019-05-01T03:46:10.479Z,100459.64
2019-05-01T03:47:15.121Z,100462.67
2019-05-01T03:48:19.903Z,100459.55
2019-05-01T03:49:25.109Z,100464.80
2019-05-01T03:50:29.580Z,100462.56
2019-05-01T03:51:34.055Z,100460.03
2019-05-01T03:52:38.586Z,100471.69
2019-05-01T03:53:43.695Z,100463.31
2019-05-01T03:54:49.595Z,100463.31
2019-05-01T03:55:54.864Z,100462.83
2019-05-01T03:56:59.990Z,100466.29
2019-05-01T03:58:05.397Z,100465.80
2019-05-01T03:59:10.220Z,100461.03
2019-05-01T04:00:31.948Z,100466.29
2019-05-01T04:01:38.350Z,100466.20
2019-05-01T04:02:48.772Z,100464.54
2019-05-01T04:03:59.018Z,100461.47
2019-05-01T04:05:04.325Z,100457.87
2019-05-01T04:06:08.816Z,100459.62
2019-05-01T04:07:13.332Z,100455.24
2019-05-01T04:08:18.448Z,100456.98
2019-05-01T04:09:22.935Z,100457.82
2019-05-01T04:10:27.642Z,100457.34
2019-05-01T04:11:32.254Z,100455.59
2019-05-01T04:12:37.264Z,100461.29
2019-05-01T04:13:41.940Z,100456.95
2019-05-01T04:14:46.548Z,100460.37
2019-05-01T04:15:52.703Z,100464.74
2019-05-01T04:16:59.494Z,100461.20
2019-05-01T04:18:05.867Z,100454.08
2019-05-01T04:19:11.135Z,100457.20
2019-05-01T04:20:15.738Z,100452.72
2019-05-01T04:21:22.076Z,100456.66
2019-05-01T04:22:26.884Z,100454.86
2019-05-01T04:23:31.726Z,100453.94
2019-05-01T04:24:37.081Z,100460.60
2019-05-01T04:25:41.912Z,100452.72
2019-05-01T04:26:46.394Z,100455.30
2019-05-01T04:27:53.558Z,100459.20
2019-05-01T04:29:15.496Z,100460.95
2019-05-01T04:30:38.122Z,100456.95
2019-05-01T04:31:44.503Z,100461.68
2019-05-01T04:32:52.996Z,100464.36
2019-05-01T04:33:58.287Z,100459.92
2019-05-01T04:35:20.605Z,100463.73
2019-05-01T04:36:33.209Z,100467.19
2019-05-01T04:37:38.279Z,100469.77
2019-05-01T04:38:42.870Z,100473.66
2019-05-01T04:39:47.833Z,100467.96
2019-05-01T04:40:52.364Z,100473.56
2019-05-01T04:41:57.008Z,100474.84
2019-05-01T04:43:01.716Z,100473.02
2019-05-01T04:44:06.562Z,100474.25
2019-05-01T04:45:11.530Z,100476.00
2019-05-01T04:46:16.133Z,100469.91
2019-05-01T04:47:20.671Z,100475.91
2019-05-01T04:48:25.379Z,100475.51
2019-05-01T04:49:30.033Z,100476.44
2019-05-01T04:50:36.420Z,100476.54
2019-05-01T04:51:41.028Z,100472.93
2019-05-01T04:52:45.931Z,100472.44
2019-05-01T04:53:52.029Z,100472.78
2019-05-01T04:54:56.592Z,100475.36
2019-05-01T04:56:01.531Z,100469.27
2019-05-01T04:57:06.025Z,100470.20
2019-05-01T04:58:10.954Z,100470.97
2019-05-01T04:59:15.884Z,100473.27
2019-05-01T05:00:20.448Z,100473.59
2019-05-01T05:01:28.336Z,100472.33
2019-05-01T05:02:40.576Z,100470.97
2019-05-01T05:03:46.989Z,100477.16
2019-05-01T05:04:51.475Z,100476.62
2019-05-01T05:05:56.286Z,100479.20
2019-05-01T05:07:01.804Z,100477.06
2019-05-01T05:08:06.336Z,100475.20
2019-05-01T05:09:11.136Z,100477.23
2019-05-01T05:10:16.058Z,100482.50
2019-05-01T05:11:28.900Z,100476.69
2019-05-01T05:12:44.595Z,100480.49
2019-05-01T05:14:09.083Z,100479.65
2019-05-01T05:15:21.494Z,100477.91
2019-05-01T05:16:44.409Z,100476.84
2019-05-01T05:17:49.242Z,100476.03
2019-05-01T05:18:53.782Z,100478.55
2019-05-01T05:19:58.541Z,100477.16
2019-05-01T05:21:03.288Z,100477.39
2019-05-01T05:22:08.095Z,100476.73
2019-05-01T05:23:12.931Z,100474.92
2019-05-01T05:24:17.872Z,100476.02
2019-05-01T05:25:23.227Z,100479.97
2019-05-01T05:26:28.239Z,100483.26
2019-05-01T05:27:34.442Z,100477.27
2019-05-01T05:28:39.583Z,100479.10
2019-05-01T05:29:45.316Z,100483.66
2019-05-01T05:30:52.078Z,100483.55
2019-05-01T05:31:59.601Z,100480.75
2019-05-01T05:33:17.779Z,100482.94
2019-05-01T05:34:14.639Z,100480.02
2019-05-01T05:35:22.107Z,100481.55
2019-05-01T05:36:28.253Z,100481.75
2019-05-01T05:37:37.028Z,100479.03
2019-05-01T05:38:50.456Z,100472.48
2019-05-01T05:39:58.159Z,100470.31
2019-05-01T05:41:04.402Z,100474.15
2019-05-01T05:42:10.440Z,100472.33
2019-05-01T05:43:15.359Z,100484.44
2019-05-01T05:44:20.178Z,100472.24
2019-05-01T05:45:24.940Z,100472.45
2019-05-01T05:46:30.129Z,100472.25
2019-05-01T05:47:35.345Z,100473.33
2019-05-01T05:48:41.328Z,100476.16
2019-05-01T05:49:46.530Z,100473.22
2019-05-01T05:51:11.117Z,100472.21
2019-05-01T05:52:34.842Z,100467.45
2019-05-01T05:53:41.991Z,100471.63
2019-05-01T05:54:54.401Z,100472.00
2019-05-01T05:56:11.895Z,100468.30
2019-05-01T05:57:20.574Z,100470.23
2019-05-01T05:58:27.481Z,100468.75
2019-05-01T05:59:38.434Z,100474.02
2019-05-01T06:00:58.077Z,100465.98
2019-05-01T06:02:07.115Z,100467.52
2019-05-01T06:03:35.013Z,100471.91
2019-05-01T06:04:59.961Z,100465.55
2019-05-01T06:06:08.354Z,100463.92
2019-05-01T06:07:17.005Z,100469.06
2019-05-01T06:08:25.903Z,100468.45
2019-05-01T06:09:35.536Z,100477.98
2019-05-01T06:10:43.207Z,100472.58
2019-05-01T06:11:52.381Z,100473.26
2019-05-01T06:13:21.903Z,100475.81
2019-05-01T06:14:45.565Z,100475.02
2019-05-01T06:15:54.459Z,100471.55
2019-05-01T06:17:03.360Z,100475.54
2019-05-01T06:18:09.543Z,100466.58
2019-05-01T06:19:32.387Z,100472.38
2019-05-01T06:20:44.811Z,100465.20
2019-05-01T06:22:11.672Z,100474.45
2019-05-01T06:23:23.211Z,100471.51
2019-05-01T06:24:29.390Z,100477.85
2019-05-01T06:25:38.176Z,100474.75
2019-05-01T06:26:43.451Z,100478.08
2019-05-01T06:27:49.321Z,100474.70
2019-05-01T06:29:00.552Z,100477.97
2019-05-01T06:30:02.183Z,100465.51
2019-05-01T06:31:23.144Z,100467.64
2019-05-01T06:32:24.270Z,100471.98
2019-05-01T06:33:29.124Z,100467.57
2019-05-01T06:34:33.664Z,100466.70
2019-05-01T06:35:39.427Z,100464.73
2019-05-01T06:36:48.939Z,100472.69
2019-05-01T06:38:00.717Z,100471.02
2019-05-01T06:39:11.737Z,100471.29
2019-05-01T06:40:18.761Z,100471.27
2019-05-01T06:41:22.052Z,100471.53
2019-05-01T06:42:26.835Z,100479.84
2019-05-01T06:43:38.933Z,100483.25
2019-05-01T06:44:58.454Z,100481.98
2019-05-01T06:46:13.717Z,100481.37
2019-05-01T06:47:23.983Z,100481.31
2019-05-01T06:48:33.224Z,100481.42
2019-05-01T06:49:49.161Z,100482.84
2019-05-01T06:50:55.277Z,100480.23
2019-05-01T06:52:06.106Z,100480.95
2019-05-01T06:53:10.642Z,100480.77
2019-05-01T06:54:16.579Z,100484.73
2019-05-01T06:55:22.450Z,100481.45
2019-05-01T06:56:28.715Z,100481.91
2019-05-01T06:57:33.586Z,100481.63
2019-05-01T06:58:38.052Z,100482.71
2019-05-01T06:59:43.562Z,100491.47
2019-05-01T07:00:48.663Z,100487.92
2019-05-01T07:01:58.363Z,100488.45
2019-05-01T07:03:01.568Z,100487.48
2019-05-01T07:04:06.963Z,100481.30
2019-05-01T07:05:14.766Z,100486.44
2019-05-01T07:06:18.978Z,100485.17
2019-05-01T07:07:25.709Z,100485.39
2019-05-01T07:08:34.326Z,100487.38
2019-05-01T07:09:44.112Z,100487.51
2019-05-01T07:10:49.385Z,100484.75
2019-05-01T07:11:57.524Z,100486.77
2019-05-01T07:13:06.465Z,100488.51
2019-05-01T07:14:16.111Z,100488.34
2019-05-01T07:15:21.816Z,100485.38
2019-05-01T07:16:25.157Z,100490.33
2019-05-01T07:17:32.385Z,100491.54
2019-05-01T07:18:38.802Z,100488.06
2019-05-01T07:20:03.082Z,100491.02
2019-05-01T07:21:08.056Z,100496.08
2019-05-01T07:22:17.218Z,100495.41
2019-05-01T07:23:22.676Z,100489.97
2019-05-01T07:24:29.149Z,100488.26
2019-05-01T07:25:34.876Z,100489.37
2019-05-01T07:26:43.972Z,100484.63
2019-05-01T07:27:49.533Z,100483.94
2019-05-01T07:29:01.422Z,100489.39
2019-05-01T07:30:09.537Z,100489.32
2019-05-01T07:31:18.743Z,100486.66
2019-05-01T07:32:25.160Z,100489.56
2019-05-01T07:33:33.590Z,100482.13
2019-05-01T07:34:38.624Z,100481.59
2019-05-01T07:35:43.787Z,100486.80
2019-05-01T07:36:50.097Z,100487.34
2019-05-01T07:37:57.536Z,100489.20
2019-05-01T07:39:01.447Z,100488.02
2019-05-01T07:40:08.232Z,100495.59
2019-05-01T07:41:12.842Z,100493.77
2019-05-01T07:42:31.374Z,100496.41
2019-05-01T07:43:37.750Z,100495.40
2019-05-01T07:44:46.473Z,100499.52
2019-05-01T07:46:08.941Z,100496.05
2019-05-01T07:47:15.412Z,100497.87
2019-05-01T07:48:22.993Z,100498.69
2019-05-01T07:49:39.020Z,100500.27
2019-05-01T07:50:43.562Z,100505.23
2019-05-01T07:51:52.295Z,100502.20
2019-05-01T07:52:57.140Z,100501.89
2019-05-01T07:54:04.011Z,100494.55
2019-05-01T07:55:13.046Z,100497.53
2019-05-01T07:56:17.259Z,100491.52
2019-05-01T07:57:23.093Z,100492.73
2019-05-01T07:58:29.446Z,100493.66
2019-05-01T07:59:34.322Z,100490.16
2019-05-01T08:00:54.911Z,100490.98
2019-05-01T08:02:01.053Z,100489.38
2019-05-01T08:03:07.294Z,100491.45
2019-05-01T08:04:13.826Z,100482.48
2019-05-01T08:05:17.966Z,100492.98
2019-05-01T08:06:22.952Z,100491.14
2019-05-01T08:07:27.911Z,100491.56
2019-05-01T08:08:33.716Z,100485.75
2019-05-01T08:09:38.188Z,100489.62
2019-05-01T08:10:42.958Z,100487.75
2019-05-01T08:11:47.819Z,100489.30
2019-05-01T08:12:55.558Z,100491.59
2019-05-01T08:14:07.365Z,100488.14
2019-05-01T08:15:05.501Z,100491.27
2019-05-01T08:16:09.983Z,100488.45
2019-05-01T08:17:18.146Z,100490.39
2019-05-01T08:18:27.859Z,100484.03
2019-05-01T08:19:43.170Z,100484.83
2019-05-01T08:20:50.414Z,100486.91
2019-05-01T08:22:01.619Z,100480.30
2019-05-01T08:23:07.599Z,100485.05
2019-05-01T08:24:11.115Z,100488.75
2019-05-01T08:25:16.160Z,100481.61
2019-05-01T08:26:20.644Z,100488.20
2019-05-01T08:27:29.660Z,100487.95
2019-05-01T08:28:48.146Z,100482.77
2019-05-01T08:30:03.483Z,100482.69
2019-05-01T08:31:29.099Z,100484.66
2019-05-01T08:32:38.938Z,100484.86
2019-05-01T08:33:49.736Z,100484.85
2019-05-01T08:34:59.902Z,100478.94
2019-05-01T08:36:02.114Z,100478.66
2019-05-01T08:37:06.876Z,100484.30
2019-05-01T08:38:11.353Z,100483.50
2019-05-01T08:39:16.164Z,100482.30
2019-05-01T08:40:21.698Z,100482.31
2019-05-01T08:41:27.168Z,100491.69
2019-05-01T08:42:32.611Z,100490.95
2019-05-01T08:43:37.787Z,100487.72
2019-05-01T08:44:46.348Z,100490.30
2019-05-01T08:45:58.606Z,100483.05
2019-05-01T08:47:10.484Z,100484.71
2019-05-01T08:48:20.012Z,100476.69
2019-05-01T08:49:26.148Z,100477.48
2019-05-01T08:50:30.611Z,100484.69
2019-05-01T08:51:36.019Z,100484.77
2019-05-01T08:52:42.624Z,100484.19
2019-05-01T08:53:47.718Z,100487.99
2019-05-01T08:54:54.726Z,100481.45
2019-05-01T08:55:58.766Z,100478.31
2019-05-01T08:57:03.538Z,100483.02
2019-05-01T08:58:08.775Z,100488.66
2019-05-01T08:59:14.478Z,100486.75
2019-05-01T09:00:19.407Z,100482.14
2019-05-01T09:01:24.215Z,100483.12
2019-05-01T09:02:28.701Z,100481.67
2019-05-01T09:03:33.171Z,100481.47
2019-05-01T09:04:37.948Z,100481.24
2019-05-01T09:05:42.772Z,100476.63
2019-05-01T09:06:47.322Z,100474.39
2019-05-01T09:07:55.987Z,100481.92
2019-05-01T09:08:58.257Z,100481.09
2019-05-01T09:10:02.759Z,100485.20
2019-05-01T09:11:07.308Z,100482.94
2019-05-01T09:12:13.555Z,100479.64
2019-05-01T09:13:18.808Z,100477.44
2019-05-01T09:14:24.377Z,100471.35
2019-05-01T09:15:28.873Z,100477.08
2019-05-01T09:16:33.411Z,100476.77
2019-05-01T09:17:37.917Z,100476.66
2019-05-01T09:18:42.761Z,100478.78
2019-05-01T09:19:47.694Z,100476.41
2019-05-01T09:20:53.824Z,100475.05
2019-05-01T09:21:58.309Z,100475.86
2019-05-01T09:23:02.786Z,100472.73
2019-05-01T09:24:07.257Z,100469.56
2019-05-01T09:25:13.449Z,100467.94
2019-05-01T09:26:20.026Z,100469.83
2019-05-01T09:27:29.288Z,100467.67
2019-05-01T09:28:40.924Z,100466.77
2019-05-01T09:29:53.177Z,100465.38
2019-05-01T09:31:02.202Z,100465.44
2019-05-01T09:32:10.285Z,100467.35
2019-05-01T09:33:12.552Z,100460.59
2019-05-01T09:34:19.208Z,100468.50
2019-05-01T09:35:23.340Z,100463.91
2019-05-01T09:36:27.827Z,100462.47
2019-05-01T09:37:32.314Z,100462.24
2019-05-01T09:38:36.860Z,100462.62
2019-05-01T09:39:41.476Z,100462.53
2019-05-01T09:40:45.964Z,100466.95
2019-05-01T09:41:50.499Z,100465.22
2019-05-01T09:42:59.318Z,100456.27
2019-05-01T09:44:01.427Z,100468.16
2019-05-01T09:45:07.067Z,100457.83
2019-05-01T09:46:11.610Z,100456.85
2019-05-01T09:47:16.752Z,100460.47
2019-05-01T09:48:21.304Z,100457.97
2019-05-01T09:49:25.852Z,100454.95
2019-05-01T09:50:31.963Z,100458.55
2019-05-01T09:51:47.459Z,100456.58
2019-05-01T09:52:59.784Z,100456.93
2019-05-01T09:54:09.779Z,100451.81
2019-05-01T09:55:17.874Z,100455.23
2019-05-01T09:56:24.858Z,100448.48
2019-05-01T09:57:29.657Z,100447.63
2019-05-01T09:58:34.441Z,100443.59
2019-05-01T09:59:38.919Z,100448.06
2019-05-01T10:00:43.684Z,100442.86
2019-05-01T10:01:48.198Z,100438.88
2019-05-01T10:02:54.696Z,100445.52
2019-05-01T10:03:59.157Z,100443.87
2019-05-01T10:05:06.684Z,100446.02
2019-05-01T10:06:12.833Z,100444.12
2019-05-01T10:07:18.911Z,100444.12
2019-05-01T10:08:24.036Z,100439.77
2019-05-01T10:09:28.822Z,100433.33
2019-05-01T10:10:33.293Z,100429.58
2019-05-01T10:11:40.767Z,100426.63
2019-05-01T10:12:46.903Z,100429.61
2019-05-01T10:13:53.664Z,100433.05
2019-05-01T10:14:56.690Z,100416.84
2019-05-01T10:16:01.166Z,100422.22
2019-05-01T10:17:06.608Z,100422.10
2019-05-01T10:18:11.088Z,100426.21
2019-05-01T10:19:15.895Z,100428.32
2019-05-01T10:20:20.337Z,100421.38
2019-05-01T10:21:27.312Z,100424.80
2019-05-01T10:22:32.967Z,100423.61
2019-05-01T10:23:37.493Z,100422.31
2019-05-01T10:24:41.979Z,100424.23
2019-05-01T10:25:49.813Z,100420.98
2019-05-01T10:27:00.074Z,100418.31
2019-05-01T10:28:12.732Z,100416.27
2019-05-01T10:29:33.784Z,100418.07
2019-05-01T10:30:40.034Z,100413.81
2019-05-01T10:31:58.274Z,100421.27
2019-05-01T10:33:04.380Z,100418.45
2019-05-01T10:34:26.739Z,100427.09
2019-05-01T10:35:43.045Z,100424.11
2019-05-01T10:36:49.759Z,100411.81
2019-05-01T10:37:53.052Z,100413.70
2019-05-01T10:38:57.520Z,100413.20
2019-05-01T10:40:02.003Z,100415.19
2019-05-01T10:41:10.451Z,100413.51
2019-05-01T10:42:17.389Z,100414.02
2019-05-01T10:43:22.746Z,100409.23
2019-05-01T10:44:28.984Z,100413.61
2019-05-01T10:45:33.435Z,100409.28
2019-05-01T10:46:38.191Z,100412.27
2019-05-01T10:47:42.680Z,100408.41
2019-05-01T10:48:47.456Z,100408.52
2019-05-01T10:49:52.230Z,100407.88
2019-05-01T10:50:56.700Z,100408.47
2019-05-01T10:52:13.138Z,100402.17
2019-05-01T10:53:07.376Z,100401.03
2019-05-01T10:54:11.868Z,100402.28
2019-05-01T10:55:16.341Z,100401.88
2019-05-01T10:56:21.113Z,100399.80
2019-05-01T10:57:25.585Z,100394.58
2019-05-01T10:58:30.376Z,100396.20
2019-05-01T10:59:34.851Z,100397.78
2019-05-01T11:00:41.591Z,100395.92
2019-05-01T11:01:53.599Z,100401.36
2019-05-01T11:02:58.699Z,100395.03
2019-05-01T11:04:03.350Z,100392.97
2019-05-01T11:05:08.817Z,100390.88
2019-05-01T11:06:13.768Z,100393.96
2019-05-01T11:07:18.525Z,100389.41
2019-05-01T11:08:23.089Z,100386.50
2019-05-01T11:09:27.913Z,100384.23
2019-05-01T11:10:32.875Z,100381.80
2019-05-01T11:11:37.825Z,100389.31
2019-05-01T11:12:42.291Z,100381.76
2019-05-01T11:13:47.129Z,100377.17
2019-05-01T11:14:51.668Z,100369.09
2019-05-01T11:15:56.157Z,100369.70
2019-05-01T11:17:01.052Z,100374.87
2019-05-01T11:18:05.568Z,100378.49
2019-05-01T11:19:10.515Z,100375.61
2019-05-01T11:20:15.238Z,100372.85
2019-05-01T11:21:20.253Z,100371.68
2019-05-01T11:22:25.377Z,100371.02
2019-05-01T11:23:29.878Z,100364.52
2019-05-01T11:24:35.979Z,100361.69
2019-05-01T11:25:40.452Z,100365.55
2019-05-01T11:26:45.064Z,100363.77
2019-05-01T11:27:49.605Z,100360.27
2019-05-01T11:28:54.418Z,100366.56
2019-05-01T11:29:58.900Z,100361.03
2019-05-01T11:31:05.877Z,100359.30
2019-05-01T11:32:12.544Z,100357.42
2019-05-01T11:33:18.858Z,100359.31
2019-05-01T11:34:37.058Z,100359.50
2019-05-01T11:35:49.674Z,100362.79
2019-05-01T11:37:02.244Z,100367.63
2019-05-01T11:38:14.067Z,100364.59
2019-05-01T11:39:26.217Z,100368.81
2019-05-01T11:40:32.622Z,100357.88
2019-05-01T11:41:50.931Z,100364.73
2019-05-01T11:42:55.485Z,100359.10
2019-05-01T11:44:00.342Z,100355.10
2019-05-01T11:45:07.872Z,100357.84
2019-05-01T11:46:12.750Z,100353.45
2019-05-01T11:47:17.517Z,100358.59
2019-05-01T11:48:25.019Z,100361.72
2019-05-01T11:49:28.191Z,100355.94
2019-05-01T11:50:32.654Z,100346.29
2019-05-01T11:51:37.126Z,100336.42
2019-05-01T11:52:41.975Z,100346.23
2019-05-01T11:53:46.483Z,100342.95
2019-05-01T11:54:50.957Z,100342.86
2019-05-01T11:55:55.427Z,100341.34
2019-05-01T11:56:59.902Z,100337.59
2019-05-01T11:58:04.443Z,100348.75
2019-05-01T11:59:09.250Z,100339.94
2019-05-01T12:00:16.121Z,100348.26
2019-05-01T12:01:22.817Z,100340.65
2019-05-01T12:02:27.595Z,100329.74
2019-05-01T12:03:32.360Z,100343.59
2019-05-01T12:04:37.208Z,100331.26
2019-05-01T12:05:41.681Z,100334.88
2019-05-01T12:06:46.472Z,100340.16
2019-05-01T12:07:51.392Z,100328.62
2019-05-01T12:08:55.887Z,100321.81
2019-05-01T12:10:00.356Z,100324.80
2019-05-01T12:11:06.439Z,100329.22
2019-05-01T12:12:12.937Z,100333.91
2019-05-01T12:13:17.749Z,100330.17
2019-05-01T12:14:22.240Z,100334.37
2019-05-01T12:15:26.719Z,100332.77
2019-05-01T12:16:49.401Z,100337.79
2019-05-01T12:17:54.841Z,100336.92
2019-05-01T12:18:59.489Z,100332.41
2019-05-01T12:20:05.902Z,100340.49
2019-05-01T12:21:10.731Z,100344.65
2019-05-01T12:22:16.386Z,100330.31
2019-05-01T12:23:20.861Z,100339.03
2019-05-01T12:24:25.354Z,100329.29
2019-05-01T12:25:29.829Z,100330.20
2019-05-01T12:26:34.457Z,100325.31
2019-05-01T12:27:39.240Z,100319.91
2019-05-01T12:28:43.718Z,100322.86
2019-05-01T12:29:48.575Z,100317.58
2019-05-01T12:30:54.116Z,100315.11
2019-05-01T12:31:58.593Z,100327.96
2019-05-01T12:33:03.067Z,100326.62
2019-05-01T12:34:07.534Z,100318.22
2019-05-01T12:35:12.175Z,100316.52
2019-05-01T12:36:16.652Z,100320.61
2019-05-01T12:37:37.486Z,100319.11
2019-05-01T12:38:42.286Z,100312.92
2019-05-01T12:39:47.213Z,100322.07
2019-05-01T12:41:09.763Z,100307.56
2019-05-01T12:42:15.887Z,100320.31
2019-05-01T12:43:21.419Z,100306.29
2019-05-01T12:44:26.291Z,100315.59